LTAD/ANK METAR and TAF weather

Enter ICAO airport designator
Station Type Date Time Source
LTAD METAR 2022/01/19 17:50 UTC NOAA

LTAD 191750Z 30007KT 9999 SCT040 M04/M10 Q1024 NOSIG RMK RWY29 32004KT 280V360


Station Type Date Time Source
LTAD Decoded METAR 2022/01/19 17:50 UTC NOAA

Ankara / Etimesgut, Turkey (LTAD) 39-57N 032-41E 806M
Jan 19, 2022 - 12:50 PM EST / 2022.01.19 1750 UTC
Wind: from the WNW (300 degrees) at 8 MPH (7 KT):0
Visibility: greater than 7 mile(s):0
Sky conditions: partly cloudy
Temperature: 24 F (-4 C)
Windchill: 15 F (-9 C):1
Dew Point: 14 F (-10 C)
Relative Humidity: 62%
Pressure (altimeter): 30.24 in. Hg (1024 hPa)
ob: LTAD 191750Z 30007KT 9999 SCT040 M04/M10 Q1024 NOSIG RMK RWY29 32004KT 280V360
cycle: 18

Station Type Date Time Source
LTAD TAF UTC NOAA

Error!

Example: see airport list